This is the latest recevied weather packets stored in our database for station/object WA6OOO. If no packets are shown the sender has not sent any weather packets the latest 10 day(s).
| Time | Temp. | Humidity | Pressure | Rain* | Wind** | Luminosity | Snow |
|---|---|---|---|---|---|---|---|
| 1778002892 | 17.78° C | 61% | 1017.6 hPa | 0 mm | - | 684 W/m² | - |
| 1778002589 | 18.33° C | 60% | 1017.4 hPa | 0 mm | - | 544 W/m² | - |
| 1778002286 | 17.78° C | 61% | 1017.5 hPa | 0 mm | - | 666 W/m² | - |
| 1778001984 | 17.78° C | 61% | 1017.4 hPa | 0 mm | - | 649 W/m² | - |
| 1778001680 | 17.78° C | 62% | 1017.4 hPa | 0 mm | - | 638 W/m² | - |
| 1778001375 | 17.78° C | 62% | 1017.5 hPa | 0 mm | - | 625 W/m² | - |
| 1778001072 | 17.22° C | 65% | 1017.4 hPa | 0 mm | - | 612 W/m² | - |
| 1778000769 | 17.22° C | 65% | 1017.3 hPa | 0 mm | - | 599 W/m² | - |
| 1778000465 | 17.78° C | 64% | 1017.4 hPa | 0 mm | - | 588 W/m² | - |
| 1778000160 | 17.22° C | 64% | 1017.3 hPa | 0 mm | - | 613 W/m² | - |
| 1777999856 | 17.22° C | 67% | 1017.3 hPa | 0 mm | - | 682 W/m² | - |
| 1777999552 | 16.11° C | 68% | 1017.3 hPa | 0 mm | - | 456 W/m² | - |
| 1777999250 | 16.67° C | 70% | 1017.3 hPa | 0 mm | - | 275 W/m² | - |
| 1777998943 | 17.22° C | 69% | 1017.2 hPa | 0 mm | - | 723 W/m² | - |
| 1777998639 | 16.67° C | 72% | 1017.2 hPa | 0 mm | - | 709 W/m² | - |
| 1777998338 | 15.56° C | 74% | 1017.1 hPa | 0 mm | - | 422 W/m² | - |
| 1777998035 | 15° C | 76% | 1017.2 hPa | 0 mm | - | 430 W/m² | - |
| 1777997732 | 15.56° C | 75% | 1017.1 hPa | 0 mm | - | 210 W/m² | - |
| 1777997429 | 15° C | 76% | 1017.1 hPa | 0 mm | - | 164 W/m² | - |
| 1777997127 | 15.56° C | 75% | 1017.1 hPa | 0 mm | - | 165 W/m² | - |
| 1777996824 | 16.11° C | 75% | 1017.3 hPa | 0 mm | - | 258 W/m² | - |
| 1777996520 | 16.11° C | 74% | 1017 hPa | 0 mm | - | 478 W/m² | - |
| 1777996216 | 15.56° C | 75% | 1016.9 hPa | 0 mm | - | 459 W/m² | - |
| 1777995914 | 15.56° C | 77% | 1017 hPa | 0 mm | - | 427 W/m² | - |
| 1777995609 | 14.44° C | 81% | 1017 hPa | 0 mm | - | 467 W/m² | - |
* Rain latest hour (hover to see other rain measurements)
** Current wind speed in m/s (hover to see current wind gust speed)